Time;durP1;ratioP1;P1;durP2;ratioP2;P2;SDS_P1;SDS_P2;PMS_P1;PMS_P2;Temp;Humidity;BMP_temperature;BMP_pressure;BME280_temperature;BME280_humidity;BME280_pressure;Samples;Min_cycle;Max_cycle;Signal;HPM_P1;HPM_P2
2022/06/25 00:01:30;;;;;;;0.10;0.10;;;;;;;23.91;75.44;100083.63;4992567;28;20422;-74
2022/06/25 00:03:55;;;;;;;0.10;0.10;;;;;;;23.92;75.71;100075.91;4992758;28;20038;-75
2022/06/25 00:06:21;;;;;;;0.17;0.17;;;;;;;23.93;75.69;100083.97;4992509;28;20034;-74
2022/06/25 00:08:50;;;;;;;0.10;0.10;;;;;;;23.95;76.02;100089.97;4992737;28;20058;-74
2022/06/25 00:14:09;;;;;;;0.10;0.10;;;;;;;23.83;75.11;100076.59;4993023;28;20131;-73
2022/06/25 00:16:38;;;;;;;0.10;0.10;;;;;;;23.88;75.43;100075.22;4992701;28;20034;-74
2022/06/25 00:19:06;;;;;;;0.10;0.10;;;;;;;23.92;75.81;100073.06;5000579;28;20058;-74
2022/06/25 00:21:32;;;;;;;0.10;0.10;;;;;;;23.96;75.62;100068.84;4995616;28;20026;-75
2022/06/25 00:23:57;;;;;;;0.10;0.10;;;;;;;23.93;75.76;100069.75;4995942;28;20112;-75
2022/06/25 00:26:23;;;;;;;0.10;0.10;;;;;;;23.83;76.38;100072.97;4995699;28;20552;-74
2022/06/25 00:28:48;;;;;;;0.20;0.20;;;;;;;23.79;75.81;100075.91;4995923;28;20034;-74
2022/06/25 00:31:17;;;;;;;0.10;0.10;;;;;;;23.59;75.83;100069.66;4996016;28;20030;-73
2022/06/25 00:33:44;;;;;;;0.20;0.20;;;;;;;23.55;76.22;100071.81;4996306;28;20034;-74
2022/06/25 00:36:11;;;;;;;0.10;0.10;;;;;;;23.50;76.43;100073.19;5011758;28;20538;-74
2022/06/25 00:38:37;;;;;;;0.10;0.10;;;;;;;23.55;75.91;100071.81;5000395;28;20034;-75
2022/06/25 00:41:08;;;;;;;0.20;0.20;;;;;;;23.48;76.19;100070.78;4996967;28;20041;-75
2022/06/25 00:43:39;;;;;;;0.13;0.13;;;;;;;23.38;77.56;100062.59;5000382;28;20029;-74
2022/06/25 00:46:09;;;;;;;0.20;0.20;;;;;;;23.41;78.14;100073.06;5000805;28;20476;-73
2022/06/25 00:48:37;;;;;;;0.13;0.13;;;;;;;23.33;78.50;100083.84;5017614;28;20034;-74
2022/06/25 00:51:12;;;;;;;0.20;0.20;;;;;;;23.14;79.74;100093.38;4999791;28;20026;-75
2022/06/25 00:53:41;;;;;;;0.10;0.10;;;;;;;22.98;80.65;100097.06;5017045;28;20033;-74
2022/06/25 00:56:10;;;;;;;0.20;0.20;;;;;;;22.93;81.12;100087.06;5013539;28;20428;-74
2022/06/25 00:58:39;;;;;;;0.10;0.10;;;;;;;23.03;80.45;100098.56;4999430;28;20026;-73
2022/06/25 01:01:12;;;;;;;0.17;0.17;;;;;;;22.99;80.15;100104.34;4999321;28;20025;-74
2022/06/25 01:03:38;;;;;;;0.20;0.20;;;;;;;22.97;79.79;100104.78;4999893;28;20065;-74
2022/06/25 01:06:04;;;;;;;0.10;0.10;;;;;;;22.91;79.33;100103.75;4998745;28;20117;-74
2022/06/25 01:08:35;;;;;;;0.10;0.10;;;;;;;22.79;78.70;100104.47;4998970;28;20431;-74
2022/06/25 01:11:00;;;;;;;0.10;0.10;;;;;;;22.77;78.97;100106.16;5016574;28;20029;-75
2022/06/25 01:13:27;;;;;;;0.10;0.10;;;;;;;22.82;78.92;100116.97;4999694;28;20030;-75
2022/06/25 01:15:53;;;;;;;0.10;0.10;;;;;;;22.89;78.25;100106.22;4999010;28;20097;-74
2022/06/25 01:18:19;;;;;;;0.15;0.15;;;;;;;23.05;74.60;100108.19;4998593;28;20520;-74
2022/06/25 01:20:47;;;;;;;0.10;0.10;;;;;;;23.09;73.37;100102.44;4998392;28;20377;-75
2022/06/25 01:23:13;;;;;;;0.10;0.10;;;;;;;23.10;73.31;100113.31;4999122;28;20097;-74
2022/06/25 01:25:40;;;;;;;0.10;0.10;;;;;;;23.01;73.46;100107.53;4998318;28;20022;-74
2022/06/25 01:28:08;;;;;;;0.10;0.10;;;;;;;23.02;73.01;100105.50;4998215;28;20038;-74
2022/06/25 01:30:36;;;;;;;0.10;0.10;;;;;;;23.04;72.99;100102.97;4998858;28;20075;-74
2022/06/25 01:33:01;;;;;;;0.20;0.20;;;;;;;23.07;72.57;100107.78;4998753;28;20045;-74
2022/06/25 01:35:27;;;;;;;0.20;0.20;;;;;;;22.89;72.29;100077.84;4998436;28;20408;-75
2022/06/25 01:37:52;;;;;;;0.20;0.20;;;;;;;23.00;72.60;100101.03;4998361;28;20034;-73
2022/06/25 01:40:18;;;;;;;0.20;0.20;;;;;;;23.03;72.03;100109.91;4998582;28;20032;-73
2022/06/25 01:42:59;;;;;;;0.10;0.10;;;;;;;22.94;72.07;100102.03;4997994;28;20540;-73
2022/06/25 01:45:33;;;;;;;0.10;0.10;;;;;;;22.91;72.29;100109.44;4998558;28;20041;-75
2022/06/25 01:47:59;;;;;;;0.10;0.10;;;;;;;22.93;72.39;100106.13;5015063;28;20389;-74
2022/06/25 01:50:26;;;;;;;0.10;0.10;;;;;;;22.96;72.15;100089.03;4998335;28;20026;-74
2022/06/25 01:52:55;;;;;;;0.10;0.10;;;;;;;23.07;72.13;100082.22;5015457;28;20037;-74
2022/06/25 01:55:23;;;;;;;0.10;0.10;;;;;;;23.08;72.12;100087.44;4998376;28;20029;-73
2022/06/25 01:57:49;;;;;;;0.10;0.10;;;;;;;23.10;72.25;100082.09;4997760;28;20091;-73
2022/06/25 02:00:19;;;;;;;0.20;0.20;;;;;;;23.20;72.12;100081.00;5015158;28;20030;-72
2022/06/25 02:02:45;;;;;;;0.15;0.15;;;;;;;23.20;72.15;100085.88;4997678;28;20037;-73
2022/06/25 02:05:14;;;;;;;0.10;0.10;;;;;;;23.18;72.82;100082.69;4998141;28;20050;-73
2022/06/25 02:07:43;;;;;;;0.20;0.20;;;;;;;23.14;72.94;100084.84;4997875;28;20448;-73
2022/06/25 02:10:10;;;;;;;0.10;0.10;;;;;;;23.17;72.91;100083.94;4997621;28;20030;-74
2022/06/25 02:12:38;;;;;;;0.10;0.10;;;;;;;23.11;72.96;100068.72;4997578;28;20040;-73
2022/06/25 02:15:05;;;;;;;0.10;0.10;;;;;;;22.97;72.97;100050.09;4997977;28;20026;-73
2022/06/25 02:17:31;;;;;;;0.10;0.10;;;;;;;23.10;73.02;100061.44;4997656;28;20103;-73
2022/06/25 02:19:56;;;;;;;0.20;0.20;;;;;;;23.07;72.60;100062.38;4993779;28;20473;-74
2022/06/25 02:22:27;;;;;;;0.10;0.10;;;;;;;23.19;72.56;100061.59;4995384;28;20030;-74
2022/06/25 02:24:53;;;;;;;0.10;0.10;;;;;;;23.18;72.57;100063.63;4994472;28;20096;-74
2022/06/25 02:27:18;;;;;;;0.10;0.10;;;;;;;23.13;72.68;100064.19;4994419;28;20120;-73
2022/06/25 02:29:44;;;;;;;0.15;0.15;;;;;;;23.24;72.53;100063.88;4994591;28;20034;-75
2022/06/25 02:32:09;;;;;;;0.20;0.20;;;;;;;23.19;72.43;100067.25;4993925;28;20477;-75
2022/06/25 02:34:35;;;;;;;0.20;0.20;;;;;;;23.21;72.23;100059.88;4993965;28;20026;-75
2022/06/25 02:37:01;;;;;;;0.10;0.10;;;;;;;23.27;71.99;100068.63;4994408;28;20041;-74
2022/06/25 02:39:26;;;;;;;0.10;0.10;;;;;;;23.20;72.36;100068.84;4994218;28;20343;-74
2022/06/25 02:41:54;;;;;;;0.20;0.20;;;;;;;23.12;72.47;100073.16;4994013;28;20034;-74
2022/06/25 02:44:20;;;;;;;0.20;0.20;;;;;;;23.12;72.50;100081.69;4993892;28;20476;-75
2022/06/25 02:46:48;;;;;;;0.13;0.13;;;;;;;23.07;72.63;100082.22;4993619;28;20058;-75
2022/06/25 02:49:16;;;;;;;0.20;0.20;;;;;;;23.04;72.66;100071.78;4993968;28;20050;-74
2022/06/25 02:51:42;;;;;;;0.10;0.10;;;;;;;23.12;72.65;100085.31;4993567;28;20034;-74
2022/06/25 02:54:07;;;;;;;0.20;0.20;;;;;;;23.13;73.04;100086.88;4993457;28;20026;-74
2022/06/25 02:59:19;;;;;;;0.10;0.10;;;;;;;23.22;73.03;100086.22;4994063;28;20057;-74
2022/06/25 03:01:45;;;;;;;0.10;0.10;;;;;;;23.21;73.11;100076.09;4993524;28;20430;-74
2022/06/25 03:04:11;;;;;;;0.10;0.10;;;;;;;23.20;73.34;100089.50;4993549;28;20083;-74
2022/06/25 03:06:36;;;;;;;0.10;0.10;;;;;;;23.21;73.34;100081.78;4993492;28;20389;-74
2022/06/25 03:09:03;;;;;;;0.20;0.20;;;;;;;23.22;73.49;100083.38;4993564;28;20440;-73
2022/06/25 03:11:28;;;;;;;0.10;0.10;;;;;;;23.22;73.79;100089.88;4993508;28;20045;-74
2022/06/25 03:13:54;;;;;;;0.10;0.10;;;;;;;23.19;73.94;100093.59;4993953;28;20038;-73
2022/06/25 03:16:19;;;;;;;0.10;0.10;;;;;;;23.16;74.35;100102.22;4993309;28;20034;-73
2022/06/25 03:18:45;;;;;;;0.10;0.10;;;;;;;23.29;73.86;100105.09;4993370;28;20046;-74
2022/06/25 03:21:13;;;;;;;0.10;0.10;;;;;;;23.22;74.47;100108.91;4993410;28;20370;-74
2022/06/25 03:23:41;;;;;;;0.10;0.10;;;;;;;23.26;74.43;100112.44;4992941;28;20034;-73
2022/06/25 03:26:10;;;;;;;0.10;0.10;;;;;;;23.31;74.75;100128.91;4992895;28;20049;-75
2022/06/25 03:28:36;;;;;;;0.10;0.10;;;;;;;23.25;75.33;100130.72;4992911;28;20500;-74
2022/06/25 03:31:03;;;;;;;0.10;0.10;;;;;;;23.18;76.14;100125.28;4993205;28;20097;-74
2022/06/25 03:33:29;;;;;;;0.10;0.10;;;;;;;23.08;76.17;100121.50;4993235;28;20041;-75
2022/06/25 03:35:54;;;;;;;0.10;0.10;;;;;;;22.99;76.54;100129.88;4992925;28;20030;-74
2022/06/25 03:38:20;;;;;;;0.10;0.10;;;;;;;22.97;77.35;100121.03;4993512;28;20117;-74
2022/06/25 03:40:48;;;;;;;0.10;0.10;;;;;;;23.00;77.50;100134.28;4992965;28;20026;-75
2022/06/25 03:43:14;;;;;;;0.10;0.10;;;;;;;23.05;77.15;100136.56;4993231;28;20030;-75
2022/06/25 03:45:39;;;;;;;0.10;0.10;;;;;;;23.17;77.08;100144.34;4992278;28;20372;-74
2022/06/25 03:48:07;;;;;;;0.10;0.10;;;;;;;23.10;77.15;100144.53;4992603;28;20123;-74
2022/06/25 03:50:36;;;;;;;0.10;0.10;;;;;;;23.05;77.40;100152.81;4992786;28;20496;-75
2022/06/25 03:53:01;;;;;;;0.10;0.10;;;;;;;22.98;78.19;100160.28;4992904;28;20041;-76
2022/06/25 03:55:29;;;;;;;0.10;0.10;;;;;;;23.05;77.71;100161.31;4994000;28;20038;-75
2022/06/25 03:57:56;;;;;;;0.17;0.17;;;;;;;23.14;77.96;100173.63;4993116;28;20042;-74
2022/06/25 04:00:21;;;;;;;0.10;0.10;;;;;;;23.10;77.21;100155.88;4992606;28;20071;-73
2022/06/25 04:02:47;;;;;;;0.20;0.20;;;;;;;23.00;77.94;100157.78;4992778;28;20061;-74
2022/06/25 04:05:15;;;;;;;0.17;0.17;;;;;;;23.07;77.77;100156.81;4992493;28;20116;-74
2022/06/25 04:07:41;;;;;;;0.20;0.20;;;;;;;23.07;78.21;100164.53;4992425;28;20130;-74
2022/06/25 04:10:09;;;;;;;0.10;0.10;;;;;;;23.02;79.16;100177.22;4993501;28;20101;-75
2022/06/25 04:12:35;;;;;;;0.20;0.20;;;;;;;23.10;79.02;100189.16;4997035;28;20027;-75
2022/06/25 04:15:02;;;;;;;0.20;0.20;;;;;;;23.06;78.54;100194.91;4996378;28;20492;-74
2022/06/25 04:17:28;;;;;;;0.10;0.10;;;;;;;23.04;78.68;100207.97;4996496;28;20030;-74
2022/06/25 04:19:53;;;;;;;0.20;0.20;;;;;;;23.07;78.63;100192.91;4996151;28;20046;-74
2022/06/25 04:22:19;;;;;;;0.20;0.20;;;;;;;23.21;77.83;100186.78;4996942;28;20034;-74
2022/06/25 04:24:46;;;;;;;0.10;0.10;;;;;;;23.25;78.32;100190.34;4996513;28;20119;-74
2022/06/25 04:29:03;;;;;;;0.10;0.10;;;;;;;23.22;78.71;100172.19;4996208;28;20069;-74
2022/06/25 04:29:57;;;;;;;0.10;0.10;;;;;;;23.16;79.25;100161.81;4997029;28;20067;-74
2022/06/25 04:32:23;;;;;;;0.10;0.10;;;;;;;22.95;79.98;100158.31;4996677;28;20469;-73
2022/06/25 04:34:48;;;;;;;0.10;0.10;;;;;;;23.01;79.83;100175.63;4996101;28;20038;-74
2022/06/25 04:37:14;;;;;;;0.20;0.20;;;;;;;23.13;79.98;100189.06;4996069;28;20140;-74
2022/06/25 04:39:42;;;;;;;0.20;0.20;;;;;;;23.17;79.61;100188.94;4996321;28;20023;-74
2022/06/25 04:42:08;;;;;;;0.10;0.10;;;;;;;23.30;77.70;100192.63;4995917;28;20030;-74
2022/06/25 04:44:38;;;;;;;0.13;0.13;;;;;;;23.36;76.72;100190.81;4996040;28;20034;-73
2022/06/25 04:47:04;;;;;;;0.20;0.20;;;;;;;23.31;76.36;100194.22;4996408;28;20030;-75
2022/06/25 04:49:32;;;;;;;0.10;0.10;;;;;;;23.32;76.74;100195.78;4995985;28;20496;-74
2022/06/25 04:51:57;;;;;;;0.10;0.10;;;;;;;23.39;76.55;100195.59;4996277;28;20034;-74
2022/06/25 04:54:26;;;;;;;0.10;0.10;;;;;;;23.49;75.29;100203.00;4995687;28;20484;-74
2022/06/25 04:56:54;;;;;;;0.10;0.10;;;;;;;23.64;74.69;100205.44;4995683;28;20538;-74
2022/06/25 04:59:19;;;;;;;0.10;0.10;;;;;;;23.65;74.66;100207.84;4995641;28;20499;-75
2022/06/25 05:01:46;;;;;;;0.10;0.10;;;;;;;23.65;75.09;100209.84;4997121;28;20471;-74
2022/06/25 05:04:11;;;;;;;0.10;0.10;;;;;;;23.72;74.85;100221.03;4995558;28;20061;-75
2022/06/25 05:06:37;;;;;;;0.20;0.20;;;;;;;23.81;74.57;100224.00;4995238;28;20022;-74
2022/06/25 05:09:02;;;;;;;0.20;0.20;;;;;;;23.90;74.53;100226.16;4995534;28;20112;-75
2022/06/25 05:11:31;;;;;;;0.10;0.10;;;;;;;23.99;74.30;100218.53;4995370;28;20500;-74
2022/06/25 05:13:56;;;;;;;0.20;0.20;;;;;;;24.11;73.55;100216.94;4995811;28;20026;-75
2022/06/25 05:16:22;;;;;;;0.10;0.10;;;;;;;24.20;73.56;100219.09;4995807;28;20052;-74
2022/06/25 05:18:51;;;;;;;0.10;0.10;;;;;;;24.37;72.50;100219.81;4995124;28;20050;-74
2022/06/25 05:21:16;;;;;;;0.10;0.10;;;;;;;24.51;71.62;100216.50;4996222;28;20125;-74
2022/06/25 05:23:42;;;;;;;0.10;0.10;;;;;;;24.54;71.07;100209.88;4994697;28;20065;-73
2022/06/25 05:26:07;;;;;;;0.10;0.10;;;;;;;24.75;70.18;100202.66;4995530;28;20030;-74
2022/06/25 05:28:40;;;;;;;0.10;0.10;;;;;;;25.11;66.51;100207.09;4994970;28;20322;-77
2022/06/25 05:31:05;;;;;;;0.20;0.20;;;;;;;25.43;65.89;100215.25;4995479;28;20022;-74
2022/06/25 05:33:31;;;;;;;0.10;0.10;;;;;;;25.63;64.69;100214.09;4994888;28;20366;-73
2022/06/25 05:35:56;;;;;;;0.20;0.20;;;;;;;26.55;61.17;100213.25;4995108;28;20062;-74
2022/06/25 05:38:22;;;;;;;0.20;0.20;;;;;;;26.80;59.76;100225.66;4994714;28;20497;-74
2022/06/25 05:40:47;;;;;;;0.10;0.10;;;;;;;27.18;58.89;100221.59;4994853;28;20068;-75
2022/06/25 05:43:13;;;;;;;0.20;0.20;;;;;;;27.97;56.56;100213.81;4995017;28;20113;-74
2022/06/25 05:45:39;;;;;;;0.10;0.10;;;;;;;28.76;54.23;100212.75;4994948;28;20469;-74
2022/06/25 05:48:08;;;;;;;0.10;0.10;;;;;;;29.31;52.51;100220.94;4995202;28;20042;-74
2022/06/25 05:50:33;;;;;;;0.10;0.10;;;;;;;30.01;49.99;100209.69;4979156;28;20034;-74
2022/06/25 05:52:59;;;;;;;0.10;0.10;;;;;;;30.33;48.25;100212.81;4996106;28;20034;-74
2022/06/25 05:55:28;;;;;;;0.10;0.10;;;;;;;30.73;47.39;100214.97;4994336;28;20393;-74
2022/06/25 05:57:53;;;;;;;0.10;0.10;;;;;;;31.13;46.68;100211.28;4994628;28;20026;-74
2022/06/25 06:00:19;;;;;;;0.10;0.10;;;;;;;31.14;46.18;100204.22;4994256;28;20060;-74
2022/06/25 06:02:48;;;;;;;0.10;0.10;;;;;;;31.12;46.84;100203.19;4994669;28;20081;-73
2022/06/25 06:05:13;;;;;;;0.10;0.10;;;;;;;31.58;45.63;100206.00;4995259;28;20042;-74
2022/06/25 06:07:39;;;;;;;0.10;0.10;;;;;;;32.23;43.45;100212.09;4994331;28;20544;-74
2022/06/25 06:10:06;;;;;;;0.10;0.10;;;;;;;32.25;43.92;100211.56;4990294;28;20031;-74
2022/06/25 06:12:31;;;;;;;0.10;0.10;;;;;;;32.33;43.61;100204.81;4993505;28;20081;-74
2022/06/25 06:14:57;;;;;;;0.10;0.10;;;;;;;32.53;43.23;100214.63;4994620;28;20034;-73
2022/06/25 06:17:22;;;;;;;0.15;0.15;;;;;;;31.91;43.94;100216.28;4994183;28;20026;-73
2022/06/25 06:19:50;;;;;;;0.10;0.10;;;;;;;32.28;42.89;100219.97;4993673;28;20470;-74
2022/06/25 06:22:15;;;;;;;0.10;0.10;;;;;;;31.81;43.86;100218.56;4994180;28;20030;-74
2022/06/25 06:24:43;;;;;;;0.10;0.10;;;;;;;31.66;45.03;100218.66;4993911;28;20105;-74
2022/06/25 06:27:11;;;;;;;0.10;0.10;;;;;;;31.39;45.80;100216.31;4993704;28;20518;-74
2022/06/25 06:29:37;;;;;;;0.10;0.10;;;;;;;31.67;44.45;100214.47;4993663;28;20084;-73
2022/06/25 06:32:04;;;;;;;0.10;0.10;;;;;;;32.18;44.22;100218.59;4993683;28;20038;-73
2022/06/25 06:34:30;;;;;;;0.10;0.10;;;;;;;31.47;45.98;100221.06;4993995;28;20034;-75
2022/06/25 06:36:55;;;;;;;0.10;0.10;;;;;;;31.37;45.85;100213.13;4993775;28;20496;-74
2022/06/25 06:39:23;;;;;;;0.10;0.10;;;;;;;32.25;43.95;100223.88;4993482;28;20053;-74
2022/06/25 06:41:49;;;;;;;0.10;0.10;;;;;;;32.04;44.26;100213.78;4994488;28;20548;-73
2022/06/25 06:44:16;;;;;;;0.10;0.10;;;;;;;31.88;44.63;100217.31;4994341;28;20106;-73
2022/06/25 06:46:42;;;;;;;0.10;0.10;;;;;;;31.27;45.78;100215.41;4993242;28;20110;-75
2022/06/25 06:49:09;;;;;;;0.10;0.10;;;;;;;32.49;41.88;100220.66;4993899;28;20133;-73
2022/06/25 06:51:38;;;;;;;0.10;0.10;;;;;;;32.51;42.98;100223.81;4993514;28;20030;-74
2022/06/25 06:54:03;;;;;;;0.10;0.10;;;;;;;32.11;43.83;100212.50;4994765;28;20052;-74
2022/06/25 06:56:29;;;;;;;0.10;0.10;;;;;;;31.94;44.12;100203.75;4993516;28;20481;-74
2022/06/25 06:58:55;;;;;;;0.10;0.10;;;;;;;32.45;42.99;100193.41;4993160;28;20405;-73
2022/06/25 07:01:20;;;;;;;0.10;0.10;;;;;;;32.31;42.41;100193.03;4993558;28;20036;-72
2022/06/25 07:03:46;;;;;;;0.10;0.10;;;;;;;32.05;43.59;100198.84;4993496;28;20465;-73
2022/06/25 07:06:11;;;;;;;0.10;0.10;;;;;;;31.70;45.53;100187.59;4994499;28;20026;-72
2022/06/25 07:08:37;;;;;;;0.10;0.10;;;;;;;31.42;46.00;100187.31;4993669;28;20042;-73
2022/06/25 07:11:28;;;;;;;0.10;0.10;;;;;;;30.85;45.85;100155.59;4993138;28;20448;-73
2022/06/25 07:13:48;;;;;;;0.10;0.10;;;;;;;30.97;44.47;100180.28;4993855;28;20351;-72
2022/06/25 07:16:13;;;;;;;0.10;0.10;;;;;;;31.76;42.26;100193.38;4993109;28;20093;-72
2022/06/25 07:18:39;;;;;;;0.10;0.10;;;;;;;32.11;42.18;100189.47;4992323;28;20137;-72
2022/06/25 07:21:04;;;;;;;0.10;0.10;;;;;;;32.79;40.17;100185.69;4993218;28;20026;-73
2022/06/25 07:23:30;;;;;;;0.10;0.10;;;;;;;32.50;40.59;100192.66;4993364;28;20037;-74
2022/06/25 07:25:55;;;;;;;0.20;0.20;;;;;;;32.75;39.36;100188.81;4992880;28;20385;-74
2022/06/25 07:28:21;;;;;;;0.10;0.10;;;;;;;33.02;38.54;100192.34;4993292;28;20033;-72
2022/06/25 07:30:47;;;;;;;0.10;0.10;;;;;;;32.95;38.30;100184.22;4992872;28;20462;-74
2022/06/25 07:33:12;;;;;;;0.10;0.10;;;;;;;32.94;37.55;100191.28;4993353;28;20038;-75
2022/06/25 07:35:38;;;;;;;0.10;0.10;;;;;;;34.15;35.49;100194.09;4992812;28;20381;-74
2022/06/25 07:38:04;;;;;;;0.10;0.10;;;;;;;34.33;36.44;100192.75;4992602;28;20038;-74
2022/06/25 07:40:29;;;;;;;0.10;0.10;;;;;;;34.79;34.76;100197.88;4992860;28;20077;-74
2022/06/25 07:45:39;;;;;;;0.10;0.10;;;;;;;33.95;33.68;100200.16;4993956;28;20045;-73
2022/06/25 07:48:04;;;;;;;0.10;0.10;;;;;;;34.38;34.45;100189.84;4993221;28;20035;-72
2022/06/25 07:53:14;;;;;;;0.10;0.10;;;;;;;34.76;33.07;100198.16;4994045;28;20049;-73
2022/06/25 07:55:39;;;;;;;0.10;0.10;;;;;;;35.19;32.69;100184.03;4992477;28;20393;-73
2022/06/25 07:58:05;;;;;;;0.10;0.10;;;;;;;35.47;33.49;100188.88;4993016;28;20042;-73
2022/06/25 08:00:31;;;;;;;0.10;0.10;;;;;;;35.79;32.58;100192.81;4992462;28;20491;-73
2022/06/25 08:02:56;;;;;;;0.10;0.10;;;;;;;36.62;31.36;100186.78;4993049;28;20039;-73
2022/06/25 08:05:22;;;;;;;0.10;0.10;;;;;;;35.91;32.10;100194.31;4992442;28;20396;-74
2022/06/25 08:07:49;;;;;;;0.10;0.10;;;;;;;35.33;33.26;100197.34;4992443;28;20030;-73
2022/06/25 08:10:15;;;;;;;0.10;0.10;;;;;;;34.96;33.05;100191.28;4992376;28;20033;-73
2022/06/25 08:12:40;;;;;;;0.10;0.10;;;;;;;34.89;33.82;100189.69;4992364;28;20022;-75
2022/06/25 08:15:07;;;;;;;0.10;0.10;;;;;;;35.37;33.72;100191.28;4992335;28;20121;-73
2022/06/25 08:17:34;;;;;;;0.10;0.10;;;;;;;34.74;34.60;100180.56;4992772;28;20034;-74
2022/06/25 08:20:00;;;;;;;0.10;0.10;;;;;;;35.14;33.37;100176.97;4976019;28;20402;-74
2022/06/25 08:22:25;;;;;;;0.10;0.10;;;;;;;35.09;33.17;100182.78;4992504;28;20061;-74
2022/06/25 08:24:51;;;;;;;0.10;0.10;;;;;;;35.91;32.09;100173.28;4992171;28;20061;-74
2022/06/25 08:27:19;;;;;;;0.10;0.10;;;;;;;37.03;30.57;100188.66;4992262;28;20034;-74
2022/06/25 08:29:45;;;;;;;0.10;0.10;;;;;;;37.27;30.12;100171.16;4992125;28;20034;-76
2022/06/25 08:32:11;;;;;;;0.10;0.10;;;;;;;36.23;32.04;100164.81;4991934;28;20089;-74
2022/06/25 08:34:37;;;;;;;0.10;0.10;;;;;;;36.47;31.29;100164.81;4992389;28;20085;-74
2022/06/25 08:37:04;;;;;;;0.10;0.10;;;;;;;37.13;29.74;100160.84;4992446;28;20362;-74
2022/06/25 08:39:32;;;;;;;0.10;0.10;;;;;;;37.38;29.58;100161.53;4992144;28;20035;-74
2022/06/25 08:42:03;;;;;;;0.10;0.10;;;;;;;37.82;29.80;100154.25;4992102;28;20555;-74
2022/06/25 08:44:32;;;;;;;0.10;0.10;;;;;;;36.85;30.70;100161.97;4992065;28;20038;-74
2022/06/25 08:46:58;;;;;;;0.10;0.10;;;;;;;36.26;32.03;100171.63;4992414;28;20038;-75
2022/06/25 08:49:26;;;;;;;0.10;0.10;;;;;;;36.75;32.26;100166.59;4992184;28;20038;-74
2022/06/25 08:51:57;;;;;;;0.10;0.10;;;;;;;36.16;34.56;100156.72;4993159;28;20050;-73
2022/06/25 08:54:24;;;;;;;0.10;0.10;;;;;;;35.41;35.79;100157.84;4991875;28;20038;-73
2022/06/25 08:56:49;;;;;;;0.10;0.10;;;;;;;35.69;35.55;100151.09;4992522;28;20543;-73
2022/06/25 08:59:22;;;;;;;0.10;0.10;;;;;;;35.92;34.62;100161.13;4995453;28;20034;-73
2022/06/25 09:01:48;;;;;;;0.10;0.10;;;;;;;35.73;35.20;100151.56;4994936;28;20041;-73
2022/06/25 09:04:13;;;;;;;0.10;0.10;;;;;;;36.04;35.21;100161.06;4995443;28;20030;-73
2022/06/25 09:06:39;;;;;;;0.10;0.10;;;;;;;35.90;35.29;100140.66;4995312;28;20088;-74
2022/06/25 09:09:13;;;;;;;0.10;0.10;;;;;;;35.90;35.75;100146.44;4995140;28;20034;-75
2022/06/25 09:11:52;;;;;;;0.10;0.10;;;;;;;35.16;37.76;100162.78;4995004;28;20034;-73
2022/06/25 09:14:28;;;;;;;0.10;0.10;;;;;;;35.68;36.49;100152.41;4995125;28;20109;-74
2022/06/25 09:16:57;;;;;;;0.10;0.10;;;;;;;34.89;37.03;100149.22;4996322;28;20050;-73
2022/06/25 09:19:45;;;;;;;0.10;0.10;;;;;;;34.82;37.45;100173.69;5006089;28;20392;-72
2022/06/25 09:22:17;;;;;;;0.10;0.10;;;;;;;34.70;36.79;100174.28;4998624;28;20380;-74
2022/06/25 09:24:50;;;;;;;;;;;;;;;34.26;36.26;100182.53;4999998;28;20153;-73
2022/06/25 09:27:36;;;;;;;0.10;0.10;;;;;;;34.97;36.18;100182.06;4998377;28;19913;-74
2022/06/25 09:30:14;;;;;;;0.10;0.10;;;;;;;35.13;36.73;100180.41;4999025;28;20092;-73
2022/06/25 09:32:45;;;;;;;0.10;0.10;;;;;;;35.20;36.20;100184.81;4998262;28;20065;-73
2022/06/25 09:35:12;;;;;;;0.10;0.10;;;;;;;35.86;35.92;100192.25;5015626;28;20025;-74
2022/06/25 09:37:39;;;;;;;0.10;0.10;;;;;;;35.75;36.44;100195.25;4997873;28;20032;-73
2022/06/25 09:40:06;;;;;;;0.10;0.10;;;;;;;34.89;38.92;100204.94;5015589;28;20026;-73
2022/06/25 09:42:33;;;;;;;0.10;0.10;;;;;;;34.17;40.32;100202.22;4997996;28;20125;-73
2022/06/25 09:45:09;;;;;;;0.10;0.10;;;;;;;34.54;39.93;100213.47;4997748;28;20065;-73
2022/06/25 09:47:43;;;;;;;0.10;0.10;;;;;;;35.04;37.77;100215.41;4998559;28;20041;-72
2022/06/25 09:50:19;;;;;;;0.10;0.10;;;;;;;35.11;38.97;100211.97;5015247;28;20124;-73
2022/06/25 09:52:56;;;;;;;0.10;0.10;;;;;;;34.92;38.55;100209.63;5015454;28;20037;-73
2022/06/25 09:55:24;;;;;;;0.10;0.10;;;;;;;34.98;38.83;100218.31;4998067;28;20022;-72
2022/06/25 09:57:54;;;;;;;0.10;0.10;;;;;;;35.17;38.56;100218.50;4998263;28;20444;-73
2022/06/25 10:00:22;;;;;;;0.10;0.10;;;;;;;35.69;37.93;100212.66;4998099;28;20056;-73
2022/06/25 10:02:48;;;;;;;0.10;0.10;;;;;;;35.18;38.28;100229.50;4998241;28;20100;-71
2022/06/25 10:05:21;;;;;;;0.10;0.10;;;;;;;34.63;38.84;100227.63;4997323;28;20037;-73
2022/06/25 10:08:04;;;;;;;0.10;0.10;;;;;;;34.59;38.69;100238.66;4996968;28;20025;-74
2022/06/25 10:10:37;;;;;;;0.10;0.10;;;;;;;34.04;41.40;100249.75;4997313;28;20040;-73
2022/06/25 10:13:03;;;;;;;0.10;0.10;;;;;;;34.53;40.06;100232.13;5015057;28;20026;-74
2022/06/25 10:15:29;;;;;;;0.10;0.10;;;;;;;34.93;39.78;100231.44;4981825;28;20401;-73
2022/06/25 10:17:55;;;;;;;0.10;0.10;;;;;;;34.99;39.24;100225.66;4997843;28;20046;-75
2022/06/25 10:20:23;;;;;;;0.10;0.10;;;;;;;34.73;39.54;100220.25;4993864;28;20124;-74
2022/06/25 10:22:50;;;;;;;0.10;0.10;;;;;;;34.64;40.10;100220.53;4994058;28;20196;-73
2022/06/25 10:25:22;;;;;;;0.10;0.10;;;;;;;34.78;39.27;100221.50;4994262;28;20462;-73
2022/06/25 10:27:50;;;;;;;0.10;0.10;;;;;;;34.99;39.32;100216.97;4994383;28;20438;-73
2022/06/25 10:30:46;;;;;;;0.10;0.10;;;;;;;34.78;40.49;100225.19;4994936;28;20033;-73
2022/06/25 10:33:15;;;;;;;0.10;0.10;;;;;;;34.56;39.75;100228.94;4979313;28;20030;-73
2022/06/25 10:35:42;;;;;;;0.10;0.10;;;;;;;34.07;40.44;100227.69;4993856;28;20042;-74
2022/06/25 10:38:10;;;;;;;0.10;0.10;;;;;;;34.09;39.77;100214.31;4994181;28;20026;-73
2022/06/25 10:40:56;;;;;;;0.10;0.10;;;;;;;33.53;42.00;100219.25;4993716;28;20064;-74
2022/06/25 10:43:37;;;;;;;0.10;0.10;;;;;;;33.57;43.20;100219.78;4993722;28;20030;-73
2022/06/25 10:46:30;;;;;;;0.10;0.10;;;;;;;33.09;43.94;100214.94;4993899;28;20532;-72
2022/06/25 10:49:10;;;;;;;0.10;0.10;;;;;;;32.95;44.66;100213.81;4993649;28;20122;-73
2022/06/25 10:51:38;;;;;;;0.10;0.10;;;;;;;33.61;42.59;100205.88;4993551;28;20121;-74
2022/06/25 10:54:06;;;;;;;0.10;0.10;;;;;;;33.33;43.02;100200.81;4994471;28;20054;-74
2022/06/25 10:56:48;;;;;;;0.10;0.10;;;;;;;33.78;43.19;100200.91;4993239;28;20085;-73
2022/06/25 10:59:34;;;;;;;0.10;0.10;;;;;;;33.45;44.74;100189.34;4994185;28;20113;-74
2022/06/25 11:02:07;;;;;;;0.10;0.10;;;;;;;34.46;42.20;100212.44;4993325;28;20057;-74
2022/06/25 11:04:33;;;;;;;;;;;;;;;34.11;43.41;100214.56;4993950;28;20478;-74
2022/06/25 11:07:13;;;;;;;0.10;0.10;;;;;;;33.98;44.28;100208.53;4993170;28;19917;-73
2022/06/25 11:09:40;;;;;;;0.10;0.10;;;;;;;33.69;42.67;100209.81;4993036;28;20501;-74
2022/06/25 11:12:07;;;;;;;0.10;0.10;;;;;;;34.21;39.05;100189.09;4993361;28;20157;-75
2022/06/25 11:14:33;;;;;;;0.10;0.10;;;;;;;33.87;41.61;100191.19;4993863;28;20535;-72
2022/06/25 11:17:10;;;;;;;0.10;0.10;;;;;;;33.59;42.35;100208.50;4992742;28;20046;-73
2022/06/25 11:19:37;;;;;;;0.10;0.10;;;;;;;33.51;42.84;100204.56;4992014;28;20058;-72
2022/06/25 11:22:04;;;;;;;0.10;0.10;;;;;;;32.33;46.61;100207.72;4992978;28;20112;-73
2022/06/25 11:24:31;;;;;;;0.10;0.10;;;;;;;32.58;45.58;100185.88;4992864;28;20495;-73
2022/06/25 11:29:49;;;;;;;0.10;0.10;;;;;;;32.95;43.58;100181.34;4994635;28;20488;-73
2022/06/25 11:32:23;;;;;;;0.10;0.10;;;;;;;32.92;44.60;100182.38;4993299;28;20462;-74
2022/06/25 11:34:57;;;;;;;0.10;0.10;;;;;;;32.48;45.82;100189.47;4992863;28;20046;-73
2022/06/25 11:37:24;;;;;;;0.10;0.10;;;;;;;32.18;47.08;100192.69;4992790;28;20029;-73
2022/06/25 11:39:50;;;;;;;0.10;0.10;;;;;;;32.22;46.34;100190.34;4993017;28;20038;-73
2022/06/25 11:42:16;;;;;;;0.10;0.10;;;;;;;32.44;44.76;100183.16;4993081;28;20457;-73
2022/06/25 11:44:56;;;;;;;0.10;0.10;;;;;;;32.72;43.06;100194.84;4992686;28;20092;-73